ADDS METAR Data INFO
IDs: Format: Raw Decoded Include TAF

Data at: 2102 UTC 19 Jul 2018

KFVE 192053Z AUTO 24007G17KT 10SM CLR 26/08 A2998 RMK AO2 SLP148 T02560078 58007
KFVE 191953Z AUTO 23008KT 210V290 10SM CLR 26/08 A2998 RMK AO2 SLP149 T02610083
KFVE 191853Z AUTO 25008KT 10SM CLR 26/08 A2999 RMK AO2 SLP154 T02560078
KFVE 191753Z AUTO VRB03KT 10SM CLR 25/07 A3000 RMK AO2 SLP154 T02500072 10256 20167 56008
KFVE 191653Z AUTO 24009G14KT 10SM CLR 24/07 A3000 RMK AO2 SLP156 T02440067
KFVE 191553Z AUTO 21005KT 10SM CLR 23/07 A3001 RMK AO2 SLP161 T02280067
KFVE 191453Z AUTO 24009KT 10SM CLR 23/06 A3002 RMK AO2 SLP162 T02330061 58001
KFVE 191353Z AUTO VRB03KT 10SM CLR 21/08 A3003 RMK AO2 SLP164 T02060083
KFVE 191253Z AUTO VRB03KT 10SM CLR 19/09 A3003 RMK AO2 SLP167 T01890089
KFVE 191153Z AUTO 00000KT 10SM CLR 17/08 A3003 RMK AO2 SLP166 T01670083 10167 20089 51016
KFVE 191053Z AUTO VRB03KT 10SM CLR 13/08 A3001 RMK AO2 SLP161 T01280083
KFVE 190953Z AUTO 30003KT 10SM CLR 10/07 A3000 RMK AO2 SLP156 T01000067
KFVE 190853Z AUTO 31004KT 10SM CLR 09/06 A2998 RMK AO2 SLP150 T00940061 53010
KFVE 190753Z AUTO 30003KT 10SM CLR 11/06 A2997 RMK AO2 SLP145 T01060061
KFVE 190653Z AUTO 33003KT 10SM CLR 11/07 A2996 RMK AO2 SLP141 T01110067
KFVE 190553Z AUTO 30005KT 10SM CLR 12/06 A2995 RMK AO2 SLP139 T01220061 10178 20117 52005
KFVE 190453Z AUTO 29003KT 10SM CLR 12/07 A2994 RMK AO2 SLP135 T01220072 402220117
KFVE 190353Z AUTO 24005KT 10SM CLR 12/08 A2994 RMK AO2 SLP137 T01170078
KFVE 190253Z AUTO 30005KT 10SM CLR 14/07 A2993 RMK AO2 SLP133 T01440067 51010
KFVE 190153Z AUTO 31007KT 10SM CLR 16/07 A2993 RMK AO2 SLP132 T01560072
KFVE 190053Z AUTO 32004KT 10SM CLR 16/07 A2992 RMK AO2 SLP129 T01560072
KFVE 182353Z AUTO 32006KT 10SM CLR 18/07 A2990 RMK AO2 SLP123 T01780072 10217 20178 53014
KFVE 182253Z AUTO 32009G17KT 10SM CLR 19/07 A2989 RMK AO2 SLP117 T01940067
KFVE 182153Z AUTO 32010KT 10SM CLR 21/07 A2987 RMK AO2 SLP111 T02060067
KFVE 182053Z AUTO 32017G23KT 10SM FEW055 21/07 A2986 RMK AO2 SLP107 T02110067 53009
KFVE 181953Z AUTO 33013G21KT 10SM CLR 22/07 A2985 RMK AO2 SLP102 T02170067
KFVE 181853Z AUTO 30016G22KT 280V340 10SM CLR 22/05 A2984 RMK AO2 SLP099 T02170050
KFVE 181753Z AUTO 31013G19KT 9SM CLR 22/05 A2983 RMK AO2 SLP096 T02170050 10222 20156 53002
KFVE 181653Z AUTO 31009G22KT 10SM CLR 21/06 A2982 RMK AO2 SLP093 T02110061
KFVE 181553Z AUTO 33011G17KT 10SM CLR 20/07 A2982 RMK AO2 SLP092 T02000072
KFVE 181453Z AUTO 34012G18KT 10SM FEW035 19/08 A2982 RMK AO2 SLP095 T01940078 51012
KFVE 181353Z AUTO 34014G20KT 10SM FEW025 18/09 A2982 RMK AO2 SLP092 T01780094
KFVE 181253Z AUTO 33014G22KT 10SM FEW018 FEW050 16/10 A2981 RMK AO2 SLP090 T01610100
KFVE 181153Z AUTO 33015G22KT 10SM SCT012 16/11 A2979 RMK AO2 SLP083 70031 T01560111 10189 20150 51017
KFVE 181144Z AUTO 34012KT 10SM SCT012 16/11 A2979 RMK AO2 T01560111
KFVE 181113Z AUTO 33014KT 10SM BKN012 15/12 A2978 RMK AO2 T01500117
KFVE 181053Z AUTO 32015G21KT 10SM SCT012 15/12 A2978 RMK AO2 SLP078 T01500117
KFVE 180953Z AUTO 33012KT 10SM SCT012 15/12 A2976 RMK AO2 SLP073 T01500122
KFVE 180942Z AUTO 34011KT 10SM FEW010 SCT014 15/12 A2975 RMK AO2 T01500122